Aérodrome :
LOGIN :

S'inscrire | Disclaimer

   EN    FR    IT 

 










Légende :    VFR   VFR Marginal   IFR   IFR Intensif   IFR Très Intensif
Visi : 
Plafond : 
>= 8 km
>= 3000ft
5 à 8 km
1000 à 3000 ft
1500m à 5 km
500 à 1000 ft
800 à 1500m
200 à 500 ft
< 800m
< 200 ft
Symboles :   Orages  Brouillard  Fortes neiges  Fortes précipitations  Vent > 20 kt
SIGMETs :   Divers  Orages  Givrage  Turbulence  Onde Orograph.  Cendres Volcan.







- Altitude de l'aérodrome : 1247 ft
- Code IATA : PRG


LKPR - Praha Ruzyne

DERNIER METAR :
  • 211348Z VRB03KT CAVOK 14/M00 Q1033 RMK REG QNH 1031

METARs EXPIRÉS :
  • 211330Z VRB03KT CAVOK 13/M00 Q1033 NOSIG
  • 211300Z VRB02KT CAVOK 13/M01 Q1033 NOSIG
  • 211230Z VRB03KT CAVOK 13/M01 Q1034 NOSIG
  • 211200Z VRB04KT CAVOK 12/M02 Q1034 NOSIG
  • 211130Z VRB04KT CAVOK 12/M02 Q1035 NOSIG
  • 211100Z VRB03KT CAVOK 12/M01 Q1035 NOSIG

TAF TAF LKPR
Valide du 21 à 12h jusqu'au 22 à 18h UTC


211100Z 2112/2218 VRB02KT CAVOK
TEMPO 2112/2117 14005KT
BECMG 2210/2213 07007KT
Pas de NOTAMs connus pour ce terrain.



MET'MAP, la Météo Aéronautique d'un coup d'oeil ! - Copyright ORBIFLY Décembre 2007 - Disclaimer

ORBIFLY MET'MAP TEAM :

Programmation & Développement : Alexandra Zaïnal
Conception & Développement : Baudouin d'Aumeries
Co-Programmation & Développement : Marc-Olivier Méhu
Soutien technique & logistique : Manuel Goepfert

Contact : metmap@orbifly.com




SOURCES & CREDITS :

   NOAA